Time;durP1;ratioP1;P1;durP2;ratioP2;P2;SDS_P1;SDS_P2;PMS_P1;PMS_P2;Temp;Humidity;BMP_temperature;BMP_pressure;BME280_temperature;BME280_humidity;BME280_pressure;Samples;Min_cycle;Max_cycle;Signal;HPM_P1;HPM_P2
2021/12/10 00:00:48;;;;;;;16.23;9.85;;;2.60;99.90;;;;;;5068771;28;20112;-83
2021/12/10 00:03:20;;;;;;;16.85;10.48;;;2.70;99.90;;;;;;5068915;28;20029;-84
2021/12/10 00:05:54;;;;;;;14.00;9.32;;;2.90;99.90;;;;;;5037907;28;20032;-83
2021/12/10 00:08:21;;;;;;;12.38;7.88;;;2.70;99.90;;;;;;5073055;28;20539;-84
2021/12/10 00:10:52;;;;;;;12.15;7.60;;;3.10;99.90;;;;;;5070586;28;20077;-84
2021/12/10 00:13:18;;;;;;;12.98;7.70;;;2.90;99.90;;;;;;5069062;28;20038;-85
2021/12/10 00:15:44;;;;;;;12.68;8.98;;;2.90;99.90;;;;;;5068175;28;20127;-85
2021/12/10 00:18:14;;;;;;;12.73;8.05;;;2.90;99.90;;;;;;5068457;28;20129;-86
2021/12/10 00:20:42;;;;;;;12.27;7.57;;;3.00;99.90;;;;;;5068010;28;20108;-86
2021/12/10 00:23:14;;;;;;;11.35;7.93;;;2.90;99.90;;;;;;5074002;28;20086;-85
2021/12/10 00:25:45;;;;;;;13.80;8.27;;;3.00;99.90;;;;;;5067197;28;20042;-85
2021/12/10 00:28:22;;;;;;;12.25;8.98;;;3.00;99.90;;;;;;5068193;28;20587;-85
2021/12/10 00:31:43;;;;;;;13.05;8.63;;;2.80;99.90;;;;;;5068567;28;20028;-85
2021/12/10 00:34:10;;;;;;;14.82;9.30;;;2.80;99.90;;;;;;5067257;28;20024;-86
2021/12/10 00:36:36;;;;;;;15.73;9.90;;;2.70;99.90;;;;;;5068121;28;20040;-85
2021/12/10 00:39:08;;;;;;;16.63;10.23;;;2.80;99.90;;;;;;5068130;28;20497;-85
2021/12/10 00:41:34;;;;;;;14.68;9.27;;;2.70;99.90;;;;;;5069403;28;20035;-85
2021/12/10 00:43:59;;;;;;;14.90;9.77;;;3.60;99.90;;;;;;5072846;28;20048;-86
2021/12/10 00:46:26;;;;;;;11.75;8.57;;;3.30;99.90;;;;;;5067898;28;20109;-86
2021/12/10 00:48:51;;;;;;;10.30;7.05;;;2.90;99.90;;;;;;5068107;28;20020;-85
2021/12/10 00:51:17;;;;;;;8.73;6.15;;;3.00;99.90;;;;;;5068037;28;20039;-86
2021/12/10 00:53:44;;;;;;;7.90;6.45;;;3.20;99.90;;;;;;5068399;28;20032;-85
2021/12/10 00:56:11;;;;;;;11.77;6.20;;;3.20;99.90;;;;;;5065030;28;20404;-86
2021/12/10 00:58:37;;;;;;;8.77;5.68;;;3.30;99.90;;;;;;5067963;28;20029;-85
2021/12/10 01:01:07;;;;;;;7.45;5.00;;;3.40;99.90;;;;;;5066243;28;20032;-85
2021/12/10 01:03:37;;;;;;;6.78;5.18;;;4.00;99.90;;;;;;5067547;28;20496;-85
2021/12/10 01:06:06;;;;;;;6.82;5.22;;;3.50;99.90;;;;;;5067646;28;20020;-85
2021/12/10 01:08:33;;;;;;;6.85;5.72;;;3.50;99.90;;;;;;5068825;28;20025;-86
2021/12/10 01:11:07;;;;;;;8.15;5.35;;;3.60;99.90;;;;;;5072401;28;20042;-86
2021/12/10 01:13:35;;;;;;;7.70;4.97;;;3.60;99.90;;;;;;5067872;28;20051;-84
2021/12/10 01:27:11;;;;;;;6.70;4.88;;;3.40;99.90;;;;;;5067287;28;20036;-85
2021/12/10 01:29:44;;;;;;;6.82;4.57;;;3.60;99.90;;;;;;5068557;28;20187;-85
2021/12/10 01:32:14;;;;;;;5.95;4.70;;;3.50;99.90;;;;;;5064353;28;20052;-85
2021/12/10 01:34:40;;;;;;;9.73;4.43;;;3.80;99.90;;;;;;5065854;28;20096;-85
2021/12/10 01:37:07;;;;;;;6.25;3.45;;;3.60;99.90;;;;;;5066772;28;20047;-85
2021/12/10 01:39:37;;;;;;;6.07;3.45;;;3.70;99.90;;;;;;5065638;28;20099;-85
2021/12/10 01:42:19;;;;;;;6.50;3.60;;;3.70;99.90;;;;;;5067301;28;20040;-85
2021/12/10 01:44:50;;;;;;;6.55;4.10;;;3.70;99.90;;;;;;5035507;28;20087;-85
2021/12/10 01:47:18;;;;;;;7.07;4.55;;;3.80;99.90;;;;;;5072284;28;20081;-85
2021/12/10 01:49:44;;;;;;;4.65;3.25;;;3.80;99.90;;;;;;5066287;28;20524;-85
2021/12/10 01:52:13;;;;;;;4.03;3.15;;;4.00;99.90;;;;;;5066614;28;20029;-85
2021/12/10 01:54:42;;;;;;;6.68;3.38;;;3.80;99.90;;;;;;5066965;28;20021;-85
2021/12/10 01:57:12;;;;;;;5.15;3.35;;;3.80;99.90;;;;;;5066819;28;20038;-85
2021/12/10 01:59:38;;;;;;;5.05;2.90;;;3.80;99.90;;;;;;5067872;28;20048;-85
2021/12/10 02:02:11;;;;;;;7.53;3.10;;;3.90;99.90;;;;;;5071529;28;20090;-85
2021/12/10 02:04:40;;;;;;;5.88;3.08;;;3.90;99.90;;;;;;5065807;28;20036;-84
2021/12/10 02:07:08;;;;;;;4.47;2.75;;;4.00;99.90;;;;;;5048515;28;20512;-85
2021/12/10 02:09:34;;;;;;;4.97;2.22;;;4.00;99.90;;;;;;5066816;28;20032;-85
2021/12/10 02:11:59;;;;;;;5.10;2.70;;;4.00;99.90;;;;;;5066638;28;20079;-85
2021/12/10 02:14:25;;;;;;;3.38;2.10;;;4.10;99.90;;;;;;5069779;28;20032;-85
2021/12/10 02:16:56;;;;;;;4.18;2.03;;;4.00;99.90;;;;;;5069700;28;20212;-85
2021/12/10 02:19:22;;;;;;;5.90;1.90;;;4.10;99.90;;;;;;5064431;28;20111;-83
2021/12/10 02:21:48;;;;;;;3.58;2.00;;;4.60;99.90;;;;;;5066177;28;20107;-83
2021/12/10 02:24:15;;;;;;;3.60;1.85;;;4.10;99.90;;;;;;5066196;28;20574;-83
2021/12/10 02:26:56;;;;;;;3.80;2.03;;;4.50;99.90;;;;;;5067343;28;20021;-83
2021/12/10 02:29:27;;;;;;;5.10;1.65;;;4.20;99.90;;;;;;5047023;28;20514;-85
2021/12/10 02:31:54;;;;;;;2.50;1.90;;;4.10;99.90;;;;;;5051357;28;20370;-85
2021/12/10 02:34:20;;;;;;;3.63;2.17;;;4.10;99.90;;;;;;5065664;28;20052;-85
2021/12/10 02:36:46;;;;;;;5.55;2.30;;;3.90;99.90;;;;;;5066070;28;20051;-85
2021/12/10 02:39:16;;;;;;;5.78;2.20;;;3.70;99.90;;;;;;5066156;28;20385;-85
2021/12/10 02:41:42;;;;;;;3.22;1.92;;;3.10;99.90;;;;;;5066492;28;20048;-85
2021/12/10 02:44:13;;;;;;;5.38;2.38;;;2.90;99.90;;;;;;5071586;28;20017;-84
2021/12/10 02:46:39;;;;;;;5.63;4.05;;;2.90;99.90;;;;;;5066331;28;20494;-84
2021/12/10 02:49:07;;;;;;;4.45;2.40;;;2.70;99.90;;;;;;5065689;28;20032;-85
2021/12/10 02:51:35;;;;;;;4.43;2.28;;;2.70;99.90;;;;;;5066367;28;20016;-84
2021/12/10 02:54:03;;;;;;;4.78;2.53;;;2.60;99.90;;;;;;5066643;28;20056;-85
2021/12/10 02:56:29;;;;;;;6.05;2.42;;;2.50;99.90;;;;;;5068789;28;20094;-84
2021/12/10 02:58:58;;;;;;;3.35;2.28;;;2.50;99.90;;;;;;5068465;28;20024;-85
2021/12/10 03:01:30;;;;;;;7.15;2.75;;;2.50;99.90;;;;;;5066950;28;20032;-85
2021/12/10 03:03:56;;;;;;;6.07;2.50;;;2.50;99.90;;;;;;5065682;28;20024;-84
2021/12/10 03:06:23;;;;;;;4.07;1.88;;;2.30;99.90;;;;;;5065775;28;20511;-84
2021/12/10 03:08:52;;;;;;;3.70;2.15;;;2.40;99.90;;;;;;5066195;28;20028;-85
2021/12/10 03:11:23;;;;;;;3.38;1.75;;;2.90;99.90;;;;;;5071996;28;20022;-85
2021/12/10 03:13:49;;;;;;;3.42;1.83;;;2.30;99.90;;;;;;5068134;28;20036;-85
2021/12/10 03:16:15;;;;;;;1.70;1.60;;;2.20;99.90;;;;;;5065382;28;20485;-85
2021/12/10 03:18:41;;;;;;;3.42;1.77;;;2.30;99.90;;;;;;5065060;28;20021;-85
2021/12/10 03:21:11;;;;;;;3.45;1.60;;;2.80;99.90;;;;;;5065741;28;20027;-85
2021/12/10 03:23:42;;;;;;;2.42;1.60;;;2.30;99.90;;;;;;5066724;28;20041;-85
2021/12/10 03:26:10;;;;;;;1.55;1.23;;;2.30;99.90;;;;;;5072287;28;20025;-85
2021/12/10 03:28:38;;;;;;;2.05;1.33;;;2.20;99.90;;;;;;5065053;28;20109;-85
2021/12/10 03:31:05;;;;;;;2.47;1.50;;;2.20;99.90;;;;;;5064913;28;20016;-85
2021/12/10 03:33:30;;;;;;;3.05;1.50;;;2.30;99.90;;;;;;5065563;28;20419;-83
2021/12/10 03:35:56;;;;;;;1.83;1.30;;;2.40;99.90;;;;;;5063786;28;20035;-85
2021/12/10 03:38:25;;;;;;;3.38;1.42;;;2.40;99.90;;;;;;5069517;28;20103;-85
2021/12/10 03:40:52;;;;;;;3.42;1.38;;;2.50;99.90;;;;;;5067584;28;20021;-84
2021/12/10 03:43:18;;;;;;;3.03;1.50;;;3.20;99.90;;;;;;5064803;28;20472;-84
2021/12/10 03:45:48;;;;;;;1.65;1.20;;;2.60;99.90;;;;;;5064881;28;20078;-85
2021/12/10 03:48:18;;;;;;;3.00;1.50;;;2.70;99.90;;;;;;5065593;28;20476;-84
2021/12/10 03:50:45;;;;;;;1.60;1.20;;;2.70;99.90;;;;;;5033512;28;20030;-85
2021/12/10 03:53:12;;;;;;;2.65;1.23;;;2.70;99.90;;;;;;5070813;28;20017;-84
2021/12/10 03:55:38;;;;;;;2.33;1.30;;;2.70;99.90;;;;;;5064462;28;20033;-85
2021/12/10 03:58:05;;;;;;;3.25;1.17;;;3.10;99.90;;;;;;5064359;28;20036;-85
2021/12/10 04:00:37;;;;;;;1.35;1.25;;;2.60;99.90;;;;;;5064326;28;20480;-85
2021/12/10 04:03:03;;;;;;;1.88;1.30;;;2.60;99.90;;;;;;5065129;28;20029;-84
2021/12/10 04:05:29;;;;;;;3.17;1.58;;;2.60;99.90;;;;;;5068034;28;20021;-84
2021/12/10 04:07:56;;;;;;;4.43;1.35;;;2.70;99.90;;;;;;5068627;28;20055;-85
2021/12/10 04:10:23;;;;;;;7.88;1.52;;;2.60;99.90;;;;;;5068341;28;20025;-85
2021/12/10 04:12:48;;;;;;;2.60;1.48;;;2.50;99.90;;;;;;5068385;28;20032;-85
2021/12/10 04:15:21;;;;;;;2.30;1.33;;;2.70;99.90;;;;;;5067057;28;20377;-85
2021/12/10 04:17:49;;;;;;;1.42;1.25;;;2.80;99.90;;;;;;5035942;28;20401;-85
2021/12/10 04:20:18;;;;;;;3.05;0.93;;;3.50;99.90;;;;;;5074534;28;20032;-85
2021/12/10 04:22:46;;;;;;;1.58;1.05;;;3.00;99.90;;;;;;5069253;28;20428;-85
2021/12/10 04:25:16;;;;;;;2.88;1.10;;;2.90;99.90;;;;;;5067968;28;20025;-85
2021/12/10 04:27:43;;;;;;;1.80;1.10;;;2.80;99.90;;;;;;5068308;28;20025;-85
2021/12/10 04:30:12;;;;;;;0.98;0.98;;;3.20;99.90;;;;;;5068434;28;20082;-85
2021/12/10 04:32:39;;;;;;;0.65;0.65;;;2.80;99.90;;;;;;5069274;28;20064;-85
2021/12/10 04:35:06;;;;;;;1.60;1.13;;;3.40;99.90;;;;;;5073301;28;20113;-85
2021/12/10 04:37:32;;;;;;;1.00;0.90;;;2.90;99.90;;;;;;5068348;28;20044;-84
2021/12/10 04:40:02;;;;;;;0.60;0.50;;;2.80;99.90;;;;;;5068015;28;20028;-85
2021/12/10 04:42:27;;;;;;;0.88;0.50;;;2.80;99.90;;;;;;5068088;28;20465;-85
2021/12/10 04:44:57;;;;;;;1.02;0.50;;;2.90;99.90;;;;;;5067828;28;20036;-85
2021/12/10 04:47:24;;;;;;;0.40;0.30;;;2.90;99.90;;;;;;5072198;28;20166;-85
2021/12/10 04:49:50;;;;;;;4.22;1.25;;;2.90;99.90;;;;;;5070418;28;20034;-85
2021/12/10 04:52:16;;;;;;;1.25;0.70;;;2.90;99.90;;;;;;5068017;28;20145;-85
2021/12/10 04:54:42;;;;;;;2.90;0.82;;;2.90;99.90;;;;;;5066119;28;20141;-85
2021/12/10 04:57:08;;;;;;;2.38;0.45;;;2.80;99.90;;;;;;5067793;28;20032;-85
2021/12/10 04:59:35;;;;;;;0.40;0.40;;;3.30;99.90;;;;;;5069940;28;20137;-86
2021/12/10 05:02:04;;;;;;;3.42;0.60;;;2.80;99.90;;;;;;5072546;28;20162;-86
2021/12/10 05:04:31;;;;;;;1.02;0.60;;;2.90;99.90;;;;;;5067883;28;20025;-86
2021/12/10 05:06:58;;;;;;;2.58;0.60;;;2.80;99.90;;;;;;5067453;28;20031;-85
2021/12/10 05:09:25;;;;;;;1.65;0.65;;;2.80;99.90;;;;;;5067504;28;20025;-85
2021/12/10 05:11:51;;;;;;;0.63;0.50;;;2.90;99.90;;;;;;5067636;28;20028;-86
2021/12/10 05:14:18;;;;;;;0.70;0.60;;;3.40;99.90;;;;;;5072013;28;20040;-85
2021/12/10 05:16:45;;;;;;;1.05;0.50;;;2.90;99.90;;;;;;5068672;28;20037;-85
2021/12/10 05:19:20;;;;;;;0.20;0.20;;;2.90;99.90;;;;;;5066419;28;20389;-86
2021/12/10 05:21:47;;;;;;;1.95;0.50;;;3.00;99.90;;;;;;5067658;28;20019;-85
2021/12/10 05:24:13;;;;;;;0.55;0.50;;;3.00;99.90;;;;;;5067003;28;20024;-86
2021/12/10 05:26:40;;;;;;;0.52;0.28;;;3.00;99.90;;;;;;5068170;28;20075;-85
2021/12/10 05:29:07;;;;;;;1.58;0.75;;;3.50;99.90;;;;;;5072169;28;20416;-85
2021/12/10 05:31:34;;;;;;;0.52;0.50;;;3.00;99.90;;;;;;5067005;28;20032;-85
2021/12/10 05:34:00;;;;;;;0.40;0.40;;;3.10;99.90;;;;;;5065601;28;20033;-85
2021/12/10 05:36:27;;;;;;;0.75;0.70;;;3.10;99.90;;;;;;5066473;28;20466;-85
2021/12/10 05:38:53;;;;;;;0.57;0.57;;;3.10;99.90;;;;;;5066983;28;20025;-85
2021/12/10 05:41:18;;;;;;;0.40;0.40;;;3.20;99.90;;;;;;5072213;28;20380;-85
2021/12/10 05:43:44;;;;;;;0.30;0.30;;;3.70;99.90;;;;;;5068589;28;20033;-85
2021/12/10 05:46:12;;;;;;;0.28;0.28;;;3.20;99.90;;;;;;5067207;28;20027;-85
2021/12/10 05:48:39;;;;;;;0.88;0.80;;;3.10;99.90;;;;;;5067134;28;20025;-84
2021/12/10 05:51:05;;;;;;;0.70;0.60;;;2.80;99.90;;;;;;5066754;28;20032;-85
2021/12/10 05:53:30;;;;;;;2.55;0.90;;;2.70;99.90;;;;;;5068623;28;20027;-85
2021/12/10 05:55:57;;;;;;;1.10;0.57;;;2.70;99.90;;;;;;5070730;28;20062;-85
2021/12/10 05:58:23;;;;;;;1.23;0.85;;;2.80;99.90;;;;;;5066509;28;20040;-84
2021/12/10 06:00:52;;;;;;;2.20;0.88;;;2.80;99.90;;;;;;5066442;28;20039;-83
2021/12/10 06:03:18;;;;;;;1.08;0.98;;;2.90;99.90;;;;;;5066793;28;20024;-83
2021/12/10 06:05:46;;;;;;;4.03;1.00;;;2.90;99.90;;;;;;5066734;28;20037;-84
2021/12/10 06:08:14;;;;;;;0.82;0.73;;;2.80;99.90;;;;;;5064292;28;20354;-84
2021/12/10 06:10:40;;;;;;;1.17;0.80;;;2.90;99.90;;;;;;5064832;28;20611;-84
2021/12/10 06:13:07;;;;;;;2.65;1.00;;;2.90;99.90;;;;;;5064942;28;20039;-83
2021/12/10 06:15:33;;;;;;;0.80;0.77;;;2.90;99.90;;;;;;5065796;28;20033;-83
2021/12/10 06:18:00;;;;;;;0.70;0.70;;;3.00;99.90;;;;;;5066342;28;20025;-83
2021/12/10 06:20:30;;;;;;;1.08;0.85;;;2.90;99.90;;;;;;5069207;28;20029;-84
2021/12/10 06:22:59;;;;;;;0.50;0.50;;;3.00;99.90;;;;;;5068249;28;20089;-83
2021/12/10 06:25:29;;;;;;;0.82;0.75;;;3.10;99.90;;;;;;5065326;28;20083;-83
2021/12/10 06:27:55;;;;;;;3.45;0.82;;;3.10;99.90;;;;;;5065571;28;20105;-83
2021/12/10 06:30:25;;;;;;;1.60;0.80;;;3.20;99.90;;;;;;5065860;28;20112;-84
2021/12/10 06:32:54;;;;;;;0.90;0.50;;;3.20;99.90;;;;;;5065806;28;20020;-84
2021/12/10 06:35:21;;;;;;;0.80;0.80;;;3.20;99.90;;;;;;5071201;28;20024;-84
2021/12/10 06:37:47;;;;;;;1.33;0.80;;;3.30;99.90;;;;;;5068152;28;20025;-84
2021/12/10 06:40:15;;;;;;;1.42;0.77;;;3.30;99.90;;;;;;5065344;28;20065;-84
2021/12/10 06:42:42;;;;;;;0.47;0.47;;;3.30;99.90;;;;;;5066059;28;20032;-84
2021/12/10 06:45:10;;;;;;;0.77;0.60;;;3.30;99.90;;;;;;5065753;28;20016;-85
2021/12/10 06:47:36;;;;;;;0.57;0.50;;;3.30;99.90;;;;;;5066915;28;20033;-84
2021/12/10 06:50:04;;;;;;;1.10;0.57;;;3.40;99.90;;;;;;5070974;28;20388;-84
2021/12/10 06:52:30;;;;;;;0.63;0.50;;;3.50;99.90;;;;;;5063863;28;20112;-85
2021/12/10 06:54:56;;;;;;;0.93;0.40;;;3.50;99.90;;;;;;5064942;28;20111;-85
2021/12/10 06:57:21;;;;;;;0.70;0.63;;;3.50;99.90;;;;;;5065296;28;20032;-85
2021/12/10 06:59:47;;;;;;;0.95;0.65;;;3.40;99.90;;;;;;5066188;28;20350;-85
2021/12/10 07:02:13;;;;;;;1.58;0.63;;;3.50;99.90;;;;;;5071710;28;20029;-86
2021/12/10 07:04:41;;;;;;;2.47;0.80;;;3.50;99.90;;;;;;5064481;28;20108;-85
2021/12/10 07:07:10;;;;;;;0.43;0.43;;;3.50;99.90;;;;;;5065881;28;20074;-85
2021/12/10 07:09:37;;;;;;;1.25;0.95;;;3.50;99.90;;;;;;5065085;28;20093;-86
2021/12/10 07:12:04;;;;;;;1.05;0.40;;;3.60;99.90;;;;;;5065328;28;20040;-86
2021/12/10 07:14:30;;;;;;;1.00;0.80;;;3.50;99.90;;;;;;5067583;28;20102;-86
2021/12/10 07:16:56;;;;;;;0.90;0.57;;;3.60;99.90;;;;;;5069859;28;20036;-86
2021/12/10 07:19:22;;;;;;;0.93;0.50;;;3.60;99.90;;;;;;5064918;28;20031;-86
2021/12/10 07:21:48;;;;;;;1.80;0.98;;;3.70;99.90;;;;;;5065300;28;20025;-86
2021/12/10 07:24:16;;;;;;;1.13;0.80;;;3.70;99.90;;;;;;5065136;28;20423;-87
2021/12/10 07:26:41;;;;;;;0.88;0.63;;;3.60;99.90;;;;;;5065815;28;20037;-86
2021/12/10 07:29:08;;;;;;;1.65;0.73;;;3.60;99.90;;;;;;5071511;28;20492;-87
2021/12/10 07:31:37;;;;;;;2.05;0.75;;;3.60;99.90;;;;;;5063676;28;20035;-87
2021/12/10 07:34:03;;;;;;;1.25;0.60;;;3.70;99.90;;;;;;5064943;28;20028;-87
2021/12/10 07:36:29;;;;;;;2.80;0.85;;;3.60;99.90;;;;;;5065109;28;20098;-87
2021/12/10 07:38:56;;;;;;;0.95;0.60;;;3.70;99.90;;;;;;5064949;28;20040;-87
2021/12/10 07:41:22;;;;;;;0.55;0.55;;;3.60;99.90;;;;;;5069563;28;20020;-87
2021/12/10 07:43:48;;;;;;;1.67;0.80;;;3.70;99.90;;;;;;5070792;28;20485;-87
2021/12/10 07:46:15;;;;;;;0.77;0.70;;;3.70;99.90;;;;;;5068914;28;20086;-87
2021/12/10 07:48:42;;;;;;;0.80;0.80;;;3.70;99.90;;;;;;5069274;28;20429;-87
2021/12/10 07:51:15;;;;;;;1.13;0.82;;;3.70;99.90;;;;;;5069158;28;20430;-87
2021/12/10 07:53:41;;;;;;;0.65;0.65;;;3.70;99.90;;;;;;5069021;28;20059;-86
2021/12/10 07:56:09;;;;;;;1.55;0.82;;;3.70;99.90;;;;;;5074741;28;20135;-86
2021/12/10 07:58:37;;;;;;;1.13;0.80;;;3.60;99.90;;;;;;5068777;28;20103;-87
2021/12/10 08:01:07;;;;;;;1.20;1.00;;;3.60;99.90;;;;;;5068847;28;20086;-86
2021/12/10 08:03:33;;;;;;;1.45;0.75;;;3.70;99.90;;;;;;5068532;28;20025;-86
2021/12/10 08:05:59;;;;;;;1.45;0.90;;;3.80;99.90;;;;;;5068657;28;20021;-86
2021/12/10 08:08:25;;;;;;;1.02;0.88;;;3.70;99.90;;;;;;5071895;28;20108;-86
2021/12/10 08:10:51;;;;;;;0.63;0.63;;;3.70;99.90;;;;;;5070039;28;20108;-86
2021/12/10 08:13:21;;;;;;;1.90;0.88;;;3.80;99.90;;;;;;5068510;28;20102;-87
2021/12/10 08:15:49;;;;;;;1.85;1.30;;;3.80;99.90;;;;;;5068343;28;20035;-87
2021/12/10 08:18:14;;;;;;;2.42;0.60;;;3.80;99.90;;;;;;5068666;28;20109;-86
2021/12/10 08:20:40;;;;;;;2.15;1.20;;;3.80;99.90;;;;;;5068969;28;20045;-87
2021/12/10 08:23:06;;;;;;;1.00;0.90;;;3.90;99.90;;;;;;5073564;28;20036;-86
2021/12/10 08:25:32;;;;;;;2.70;0.90;;;3.90;99.90;;;;;;5068116;28;20028;-87
2021/12/10 08:27:59;;;;;;;1.75;1.00;;;3.90;99.90;;;;;;5068075;28;20123;-86
2021/12/10 08:30:27;;;;;;;1.10;0.70;;;3.90;99.90;;;;;;5068493;28;20029;-86
2021/12/10 08:32:55;;;;;;;1.27;0.77;;;4.00;99.90;;;;;;5068154;28;20456;-86
2021/12/10 08:35:24;;;;;;;1.58;1.10;;;4.00;99.90;;;;;;5072403;28;20477;-86
2021/12/10 08:37:52;;;;;;;1.23;0.63;;;4.10;99.90;;;;;;5070909;28;20082;-86
2021/12/10 08:40:24;;;;;;;1.13;0.90;;;4.00;99.90;;;;;;5067900;28;20516;-87
2021/12/10 08:42:52;;;;;;;1.20;0.88;;;4.20;99.90;;;;;;5067970;28;20478;-86
2021/12/10 08:45:19;;;;;;;0.95;0.70;;;4.30;99.90;;;;;;5067848;28;20017;-87
2021/12/10 08:47:47;;;;;;;0.88;0.77;;;4.10;99.90;;;;;;5066836;28;20378;-86
2021/12/10 08:50:16;;;;;;;0.80;0.80;;;4.30;99.90;;;;;;5073895;28;20028;-86
2021/12/10 08:52:43;;;;;;;1.70;0.80;;;4.20;99.90;;;;;;5068434;28;20036;-87
2021/12/10 08:55:11;;;;;;;1.50;0.90;;;4.30;99.90;;;;;;5066595;28;20077;-86
2021/12/10 08:57:37;;;;;;;1.30;1.00;;;4.20;99.90;;;;;;5067846;28;20029;-86
2021/12/10 09:00:06;;;;;;;0.93;0.75;;;4.30;99.90;;;;;;5067546;28;20512;-87
2021/12/10 09:02:34;;;;;;;1.63;1.08;;;4.20;99.90;;;;;;5069794;28;20024;-86
2021/12/10 09:05:00;;;;;;;1.67;0.88;;;4.30;99.90;;;;;;5072076;28;20017;-86
2021/12/10 09:07:26;;;;;;;1.65;0.70;;;4.40;99.90;;;;;;5067423;28;20032;-86
2021/12/10 09:09:51;;;;;;;1.50;0.63;;;4.20;99.90;;;;;;5049550;28;20063;-86
2021/12/10 09:12:21;;;;;;;1.33;1.00;;;4.20;99.90;;;;;;5067155;28;20117;-86
2021/12/10 09:14:50;;;;;;;2.33;1.10;;;4.30;99.90;;;;;;5036815;28;20049;-86
2021/12/10 09:17:21;;;;;;;1.33;1.10;;;4.50;99.90;;;;;;5073158;28;20043;-85
2021/12/10 09:19:48;;;;;;;1.10;1.00;;;4.70;99.90;;;;;;5068810;28;20032;-86
2021/12/10 09:22:15;;;;;;;1.27;1.05;;;4.70;99.90;;;;;;5066984;28;20032;-86
2021/12/10 09:24:41;;;;;;;1.33;1.00;;;4.60;99.90;;;;;;5067261;28;20028;-86
2021/12/10 09:27:08;;;;;;;1.02;0.95;;;4.70;99.90;;;;;;5047869;28;20024;-86
2021/12/10 09:29:38;;;;;;;1.05;0.70;;;4.70;99.90;;;;;;5068469;28;20517;-86
2021/12/10 09:32:10;;;;;;;0.95;0.85;;;4.60;99.90;;;;;;5072392;28;20029;-86
2021/12/10 09:34:37;;;;;;;0.98;0.70;;;4.80;99.90;;;;;;5066357;28;20043;-86
2021/12/10 09:37:03;;;;;;;2.55;0.70;;;5.10;99.90;;;;;;5048753;28;20036;-86
2021/12/10 09:39:31;;;;;;;1.00;0.90;;;4.80;99.90;;;;;;5048780;28;20046;-86
2021/12/10 09:41:57;;;;;;;1.85;0.90;;;4.80;99.90;;;;;;5067018;28;20044;-86
2021/12/10 09:44:24;;;;;;;2.22;1.20;;;4.90;99.90;;;;;;5071252;28;20454;-86
2021/12/10 09:46:51;;;;;;;1.30;0.90;;;5.10;99.90;;;;;;5069123;28;20036;-85
2021/12/10 09:49:18;;;;;;;1.95;1.08;;;5.40;99.90;;;;;;5066116;28;20025;-86
2021/12/10 09:51:47;;;;;;;1.65;1.00;;;5.60;99.90;;;;;;5066620;28;20097;-86
2021/12/10 09:54:17;;;;;;;1.90;1.20;;;5.70;99.90;;;;;;5066717;28;20025;-85
2021/12/10 09:56:50;;;;;;;1.08;0.90;;;5.50;99.90;;;;;;5067237;28;20037;-85
2021/12/10 09:59:16;;;;;;;1.15;0.90;;;5.10;99.90;;;;;;5065146;28;20504;-85
2021/12/10 10:01:47;;;;;;;2.85;1.30;;;5.10;99.90;;;;;;5067043;28;20033;-85
2021/12/10 10:04:17;;;;;;;2.65;1.27;;;5.40;99.90;;;;;;5066105;28;20374;-85
2021/12/10 10:06:52;;;;;;;2.05;1.25;;;5.30;99.90;;;;;;5064340;28;20036;-85
2021/12/10 10:09:20;;;;;;;1.90;1.35;;;5.20;99.90;;;;;;5066052;28;20070;-85
2021/12/10 10:11:48;;;;;;;1.65;1.02;;;5.20;99.90;;;;;;5066197;28;20033;-85
2021/12/10 10:14:14;;;;;;;1.00;0.90;;;5.10;99.90;;;;;;5064793;28;20024;-85
2021/12/10 10:16:44;;;;;;;1.58;1.10;;;5.10;99.90;;;;;;5066142;28;20043;-85
2021/12/10 10:19:12;;;;;;;0.75;0.75;;;5.10;99.90;;;;;;5065956;28;20025;-85
2021/12/10 10:21:41;;;;;;;1.88;1.20;;;4.90;99.90;;;;;;5065898;28;20151;-85
2021/12/10 10:24:07;;;;;;;2.53;1.05;;;5.20;99.90;;;;;;5048471;28;20029;-86
2021/12/10 10:26:40;;;;;;;1.23;1.13;;;5.20;99.90;;;;;;5067909;28;20028;-84
2021/12/10 10:29:09;;;;;;;2.35;1.33;;;5.40;99.90;;;;;;5071315;28;20497;-85
2021/12/10 10:31:39;;;;;;;2.08;1.38;;;5.30;99.90;;;;;;5065683;28;20025;-85
2021/12/10 10:34:05;;;;;;;1.85;1.23;;;5.40;99.90;;;;;;5066118;28;20461;-85
2021/12/10 10:36:33;;;;;;;2.25;1.40;;;5.50;99.90;;;;;;5065795;28;20042;-85
2021/12/10 10:39:09;;;;;;;2.33;1.15;;;5.60;99.90;;;;;;5065975;28;20083;-85
2021/12/10 10:41:36;;;;;;;4.90;1.25;;;5.50;99.90;;;;;;5067418;28;20119;-85
2021/12/10 10:44:03;;;;;;;2.70;1.58;;;5.50;99.90;;;;;;5070804;28;20052;-85
2021/12/10 10:46:29;;;;;;;1.45;1.10;;;5.50;99.90;;;;;;5064330;28;20082;-85
2021/12/10 10:48:55;;;;;;;2.85;1.40;;;5.70;99.90;;;;;;5065572;28;20451;-85
2021/12/10 10:51:38;;;;;;;1.50;1.10;;;5.70;99.90;;;;;;5066381;28;20044;-85
2021/12/10 10:54:07;;;;;;;1.33;1.00;;;5.60;99.90;;;;;;5066452;28;20452;-85
2021/12/10 10:56:40;;;;;;;2.20;1.25;;;5.80;99.90;;;;;;5067866;28;20039;-85
2021/12/10 10:59:20;;;;;;;1.65;1.25;;;5.70;99.90;;;;;;5071982;28;20496;-85
2021/12/10 11:02:07;;;;;;;1.88;1.15;;;5.80;99.90;;;;;;5065390;28;20123;-85
2021/12/10 11:04:36;;;;;;;1.67;1.20;;;5.60;99.90;;;;;;5066130;28;20029;-85
2021/12/10 11:07:13;;;;;;;2.42;1.73;;;5.70;99.90;;;;;;5065810;28;20028;-85
2021/12/10 11:09:53;;;;;;;2.78;1.13;;;5.60;99.90;;;;;;5066029;28;20109;-84
2021/12/10 11:12:27;;;;;;;1.42;1.20;;;5.30;99.90;;;;;;5065806;28;20056;-85
2021/12/10 11:14:56;;;;;;;3.33;1.23;;;5.40;99.90;;;;;;5066210;28;20112;-84
2021/12/10 11:17:35;;;;;;;2.00;1.42;;;5.50;99.90;;;;;;5071410;28;20119;-84
2021/12/10 11:20:19;;;;;;;26.08;11.18;;;5.60;99.90;;;;;;5074445;28;20107;-85
2021/12/10 11:22:56;;;;;;;16.77;7.50;;;5.90;99.90;;;;;;5069824;28;20094;-84
2021/12/10 11:25:31;;;;;;;13.95;6.90;;;5.90;99.90;;;;;;5068053;28;20111;-83
2021/12/10 11:28:10;;;;;;;2.17;1.98;;;5.90;99.90;;;;;;5069492;28;20037;-83
2021/12/10 11:30:41;;;;;;;5.32;2.22;;;5.80;99.90;;;;;;5069424;28;20029;-84
2021/12/10 11:33:14;;;;;;;7.28;2.67;;;5.70;99.90;;;;;;5069429;28;20045;-83
2021/12/10 11:35:47;;;;;;;5.00;2.38;;;6.00;99.90;;;;;;5070287;28;20040;-84
2021/12/10 11:38:20;;;;;;;4.55;1.80;;;5.90;99.90;;;;;;5067121;28;20017;-84
2021/12/10 11:41:12;;;;;;;17.75;6.78;;;6.00;99.90;;;;;;5068993;28;20500;-84
2021/12/10 11:48:47;;;;;;;4.32;3.00;;;6.40;99.90;;;;;;5068754;28;20035;-84
2021/12/10 11:51:20;;;;;;;3.13;1.48;;;6.50;99.90;;;;;;5069511;28;20472;-85
2021/12/10 11:53:46;;;;;;;3.63;2.05;;;6.80;99.90;;;;;;5037430;28;20026;-85
2021/12/10 11:56:32;;;;;;;2.80;1.42;;;7.10;99.90;;;;;;5074812;28;20481;-85
2021/12/10 11:59:19;;;;;;;2.13;1.35;;;7.50;99.90;;;;;;5069788;28;20043;-85
2021/12/10 12:01:51;;;;;;;1.70;1.15;;;9.00;99.90;;;;;;5068476;28;20033;-85
2021/12/10 12:04:18;;;;;;;4.75;1.00;;;8.30;99.90;;;;;;5049455;28;20080;-85
2021/12/10 12:06:49;;;;;;;4.53;2.50;;;7.60;99.90;;;;;;5068390;28;20032;-85
2021/12/10 12:09:47;;;;;;;6.00;2.88;;;7.80;99.90;;;;;;5069089;28;20035;-85
2021/12/10 12:12:19;;;;;;;4.10;2.20;;;7.90;99.90;;;;;;5025103;28;20033;-85
2021/12/10 12:15:02;;;;;;;4.45;1.77;;;8.10;99.90;;;;;;5036375;28;20029;-85
2021/12/10 12:17:35;;;;;;;3.13;1.80;;;9.00;99.90;;;;;;5067173;28;20040;-85
2021/12/10 12:20:03;;;;;;;5.53;2.03;;;10.70;99.90;;;;;;5071669;28;20031;-85
2021/12/10 12:25:40;;;;;;;4.30;1.60;;;13.60;99.90;;;;;;5068214;28;20035;-86
2021/12/10 12:28:10;;;;;;;6.35;3.40;;;14.40;99.90;;;;;;5063179;28;20186;-86
2021/12/10 12:30:50;;;;;;;7.88;2.35;;;15.30;99.90;;;;;;5068218;28;20021;-86
2021/12/10 12:33:16;;;;;;;6.63;2.53;;;16.00;99.90;;;;;;5068266;28;20029;-85
2021/12/10 12:35:42;;;;;;;3.05;1.38;;;17.00;99.90;;;;;;5069127;28;20044;-86
2021/12/10 12:38:15;;;;;;;4.55;1.63;;;17.30;99.90;;;;;;5073538;28;20456;-86
2021/12/10 12:40:45;;;;;;;3.90;1.48;;;17.40;99.90;;;;;;5066721;28;20116;-86
2021/12/10 12:43:12;;;;;;;4.65;2.28;;;17.60;99.90;;;;;;5066140;28;20046;-85
2021/12/10 12:45:39;;;;;;;5.65;2.20;;;18.60;99.90;;;;;;5067693;28;20021;-86
2021/12/10 12:48:09;;;;;;;5.30;1.80;;;17.60;99.90;;;;;;5068019;28;20033;-86
2021/12/10 12:50:36;;;;;;;4.93;1.80;;;15.40;99.90;;;;;;5069261;28;20028;-86
2021/12/10 12:53:15;;;;;;;3.97;1.80;;;13.70;99.90;;;;;;5073024;28;20033;-86
2021/12/10 12:56:16;;;;;;;6.20;2.55;;;12.60;99.90;;;;;;5066291;28;20037;-85
2021/12/10 12:59:06;;;;;;;4.53;1.90;;;11.80;99.90;;;;;;4968295;28;20050;-86
2021/12/10 13:01:45;;;;;;;3.75;1.75;;;10.90;99.90;;;;;;4972380;28;20042;-85
2021/12/10 13:04:32;;;;;;;5.60;2.25;;;10.20;99.90;;;;;;4972374;28;20554;-86
2021/12/10 13:07:04;;;;;;;4.47;1.67;;;10.00;99.90;;;;;;4972358;28;20042;-85
2021/12/10 13:09:54;;;;;;;3.95;1.50;;;9.70;99.90;;;;;;4972701;28;20039;-85
2021/12/10 13:15:14;;;;;;;5.75;2.28;;;8.80;99.90;;;;;;4972711;28;20042;-86
2021/12/10 13:17:52;;;;;;;4.28;2.17;;;9.00;99.90;;;;;;4972614;28;20037;-85
2021/12/10 13:20:22;;;;;;;6.47;2.33;;;9.60;99.90;;;;;;4970534;28;20034;-85
2021/12/10 13:22:51;;;;;;;4.45;1.77;;;9.30;99.90;;;;;;4971957;28;20038;-85
2021/12/10 13:25:19;;;;;;;6.38;2.22;;;7.90;99.90;;;;;;4972136;28;20030;-85
2021/12/10 13:27:45;;;;;;;3.50;1.70;;;7.50;99.90;;;;;;4972369;28;20035;-85